»·PEaware :: N928EF KPHX-KABQ

N928EF :: KPHX-KABQ

FLIGHT INFORMATION

Flight Status: Arrived
Operator: Privately registered:
United States
More flights under this callsign
Pilot: Nate C. (33860)
Aircraft: SAAB 340
(SF34)
More flights by this aircraft type
Origin: KPHX Phoenix Sky Harbor Intl
United States
Destination: KABQ Albuquerque Intl Sunport
United States
More flights between these airports :: More routes between these airports
Route: SJN9 SJN SJN LAVAN3
File this flight plan on PilotEdge
Remarks:
Altitude:
(Current/Filed)
19,000ft
Speed:
(Current/Filed)
250kts
Departed: 22-May-21 05:07 PM
Arrived: 22-May-21 06:16 PM
Distance/Time
Traveled:
284nm/1:09
Distance/Time
To Go:
Arrived

Flight Plot

Page will automatically refresh every two minutes.

Flight plan parsing failed; only flown route is shown


Map Options




Map Legend


Flown Route
Filed Route
Departure Airport
Arrival Airport
Navaid (VOR, NDB)
Fix

Horizontal Profiles

Position Reports

Time Latitude Longitude Heading Altitude Ground
Speed
22-May-21 16:43 33.426352 -112.018230 90 1114ft 0kts
22-May-21 16:44 33.426352 -112.018230 90 1114ft 0kts
22-May-21 16:45 33.426352 -112.018230 90 1114ft 0kts
22-May-21 16:46 33.426352 -112.018230 90 1114ft 0kts
22-May-21 16:47 33.426352 -112.018230 90 1114ft 0kts
22-May-21 16:48 33.426352 -112.018230 90 1114ft 0kts
22-May-21 16:49 33.426352 -112.018230 90 1114ft 0kts
22-May-21 16:50 33.426352 -112.018230 90 1114ft 0kts
22-May-21 16:51 33.426352 -112.018230 90 1114ft 0kts
22-May-21 16:52 33.426352 -112.018230 90 1114ft 0kts
22-May-21 16:53 33.426352 -112.018230 90 1114ft 0kts
22-May-21 16:54 33.426352 -112.018230 90 1114ft 0kts
22-May-21 16:55 33.426352 -112.018230 90 1114ft 0kts
22-May-21 16:56 33.426352 -112.018230 90 1114ft 0kts
22-May-21 16:57 33.426352 -112.018230 90 1114ft 0kts
22-May-21 16:58 33.426352 -112.018230 90 1114ft 0kts
22-May-21 16:59 33.426352 -112.018230 90 1114ft 0kts
22-May-21 17:00 33.426352 -112.018230 90 1114ft 0kts
22-May-21 17:01 33.426351 -112.018117 90 1114ft 1kts
22-May-21 17:02 33.427736 -112.013832 89 1116ft 22kts
22-May-21 17:03 33.427745 -112.007831 89 1117ft 17kts
22-May-21 17:04 33.427916 -112.005417 33 1117ft 0kts
22-May-21 17:05 33.428839 -112.005405 282 1118ft 8kts
22-May-21 17:06 33.429305 -112.030852 271 1846ft 134kts
22-May-21 17:08 33.432698 -112.074542 270 4754ft 136kts
22-May-21 17:09 33.437005 -112.130964 270 6285ft 185kts
22-May-21 17:10 33.481773 -112.137833 64 7922ft 234kts
22-May-21 17:11 33.479819 -112.063900 102 9883ft 226kts
22-May-21 17:12 33.483111 -111.991564 65 11853ft 233kts
22-May-21 17:13 33.506593 -111.919104 78 13466ft 236kts
22-May-21 17:14 33.527267 -111.843612 79 14996ft 244kts
22-May-21 17:15 33.548064 -111.768081 78 16642ft 243kts
22-May-21 17:16 33.570079 -111.689695 78 17940ft 252kts
22-May-21 17:17 33.592731 -111.608734 78 18980ft 266kts
22-May-21 17:18 33.617793 -111.518816 77 19010ft 297kts
22-May-21 17:19 33.643892 -111.425118 78 18994ft 295kts
22-May-21 17:20 33.669728 -111.331938 79 18996ft 293kts
22-May-21 17:21 33.697375 -111.240008 73 18995ft 295kts
22-May-21 17:22 33.729675 -111.149936 74 19113ft 291kts
22-May-21 17:23 33.761659 -111.060202 74 19133ft 293kts
22-May-21 17:24 33.793835 -110.969717 74 19131ft 295kts
22-May-21 17:25 33.826113 -110.878689 74 19134ft 296kts
22-May-21 17:26 33.858348 -110.787522 75 19140ft 296kts
22-May-21 17:27 33.890579 -110.696102 75 19137ft 297kts
22-May-21 17:28 33.922796 -110.604466 75 19138ft 298kts
22-May-21 17:29 33.955132 -110.512226 76 19115ft 299kts
22-May-21 17:30 33.987404 -110.419903 76 19112ft 299kts
22-May-21 17:31 34.019700 -110.327267 77 19108ft 299kts
22-May-21 17:31 34.046505 -110.250140 77 19110ft 299kts
22-May-21 17:32 34.078541 -110.157731 78 19112ft 299kts
22-May-21 17:34 34.115900 -110.049638 78 19095ft 298kts
22-May-21 17:35 34.147590 -109.957623 78 19097ft 297kts
22-May-21 17:36 34.179293 -109.865307 78 19099ft 296kts
22-May-21 17:37 34.210787 -109.773347 78 19100ft 296kts
22-May-21 17:38 34.242307 -109.681041 78 19098ft 297kts
22-May-21 17:38 34.268408 -109.604410 78 19099ft 297kts
22-May-21 17:40 34.305296 -109.495774 78 18989ft 299kts
22-May-21 17:41 34.336768 -109.402794 78 18991ft 298kts
22-May-21 17:41 34.362896 -109.325400 78 18990ft 297kts
22-May-21 17:42 34.393977 -109.233054 78 18995ft 296kts
22-May-21 17:43 34.424355 -109.140448 87 18987ft 289kts
22-May-21 17:44 34.440754 -109.046377 90 18994ft 285kts
22-May-21 17:45 34.456902 -108.952032 90 18994ft 286kts
22-May-21 17:46 34.472944 -108.857909 90 18995ft 286kts
22-May-21 17:47 34.488962 -108.763478 90 18998ft 286kts
22-May-21 17:48 34.504921 -108.668914 90 18994ft 286kts
22-May-21 17:49 34.520814 -108.574289 90 18996ft 287kts
22-May-21 17:50 34.536641 -108.479580 90 18998ft 287kts
22-May-21 17:51 34.552430 -108.384623 89 19001ft 287kts
22-May-21 17:52 34.568113 -108.289851 90 18990ft 286kts
22-May-21 17:53 34.583705 -108.195117 90 18995ft 286kts
22-May-21 17:54 34.599110 -108.101045 90 19047ft 285kts
22-May-21 17:55 34.614493 -108.006630 90 19053ft 285kts
22-May-21 17:56 34.629823 -107.912062 90 19051ft 286kts
22-May-21 17:57 34.645129 -107.817164 89 19049ft 286kts
22-May-21 17:58 34.660491 -107.722110 85 19048ft 289kts
22-May-21 18:00 34.704959 -107.614966 68 18409ft 322kts
22-May-21 18:00 34.740456 -107.532418 67 17283ft 336kts
22-May-21 18:01 34.783717 -107.431230 67 15894ft 338kts
22-May-21 18:02 34.825942 -107.332246 69 15014ft 312kts
22-May-21 18:03 34.864260 -107.242030 69 15008ft 293kts
22-May-21 18:04 34.901350 -107.154494 69 15013ft 289kts
22-May-21 18:05 34.938066 -107.067649 69 15017ft 288kts
22-May-21 18:06 34.975009 -106.979968 69 14465ft 302kts
22-May-21 18:07 35.012426 -106.891122 69 13009ft 274kts
22-May-21 18:08 35.043615 -106.813890 88 11594ft 221kts
22-May-21 18:09 35.051710 -106.746428 90 10076ft 182kts
22-May-21 18:10 35.067324 -106.693383 30 8543ft 183kts
22-May-21 18:11 35.090494 -106.718140 196 8000ft 110kts
22-May-21 18:12 35.076600 -106.684548 129 7610ft 127kts
22-May-21 18:13 35.051799 -106.654481 137 6143ft 123kts
22-May-21 18:14 35.044416 -106.621526 96 5369ft 96kts
22-May-21 18:15 35.044216 -106.602378 94 5320ft 28kts
22-May-21 18:16 35.043257 -106.598801 240 5320ft 0kts
22-May-21 18:17 35.043242 -106.598833 240 5320ft 3kts
22-May-21 18:18 35.042556 -106.604457 262 5317ft 23kts
22-May-21 18:19 35.042461 -106.612671 271 5313ft 22kts
22-May-21 18:20 35.037277 -106.614590 221 5313ft 27kts
22-May-21 18:21 35.035933 -106.618821 135 5309ft 0kts
22-May-21 18:22 35.035933 -106.618821 135 5309ft 0kts
22-May-21 18:23 35.035933 -106.618821 135 5309ft 0kts

Navigation Log

Ident Type
Flight plan parsing failed, navigation log unavailable